Data for 12/04/2014

Time Sea-Level Adjusted Pressure Absolute Pressure Temperature Relative Humidity Dew Point   
(mb) (inHg) (mb) (inHg) (C) (F) (%) (C) (F)
00:05 1013 29.91 842 24.86 -0.8 30.5 68 -6 21.2
00:10 1013 29.91 842 24.86 -0.6 30.9 66 -6.2 20.8
00:15 1013 29.91 842 24.86 -0.5 31 66 -6.1 21.1
00:20 1013 29.91 842 24.86 -0.5 31 66 -6.1 21.1
00:25 1013 29.91 842 24.86 -0.7 30.8 59 -7.6 18.3
00:30 1013 29.91 842 24.86 -0.5 31.1 62 -6.9 19.6
00:35 1013 29.91 842 24.86 -0.6 31 67 -6 21.3
00:40 1013 29.91 842 24.86 -0.6 31 68 -5.7 21.7
00:45 1013 29.91 842 24.86 -0.4 31.2 65 -6.3 20.7
00:50 1013 29.91 842 24.86 0.1 32.1 63 -6.2 20.8
00:55 1013 29.91 842 24.86 0.4 32.7 63 -5.9 21.3
01:00 1013 29.91 842 24.86 0.6 33 63 -5.7 21.7
01:05 1013 29.91 842 24.86 0.6 33 65 -5.3 22.4
01:10 1013 29.91 842 24.86 0.6 33.2 64 -5.4 22.3
01:15 1013 29.91 842 24.86 0.8 33.4 64 -5.3 22.4
01:20 1013 29.91 842 24.86 0.8 33.5 65 -5 23
01:25 1013 29.91 842 24.86 0.7 33.2 68 -4.7 23.6
01:30 1013 29.91 842 24.86 0.5 32.8 68 -4.8 23.4
01:35 1013 29.91 842 24.86 0.2 32.4 70 -4.6 23.7
01:40 1013 29.91 842 24.86 0.2 32.4 70 -4.7 23.6
01:45 1013 29.91 842 24.86 0.4 32.7 70 -4.5 23.9
01:50 1013 29.91 842 24.86 0.3 32.5 71 -4.4 24.2
01:55 1013 29.91 842 24.86 0.8 33.5 71 -3.8 25.2
02:00 1013 29.91 842 24.86 1.2 34.2 71 -3.5 25.7
02:05 1013 29.91 842 24.86 1.2 34.2 71 -3.5 25.8
02:10 1013 29.91 842 24.86 1.2 34.2 72 -3.4 25.9
02:15 1013 29.91 842 24.86 1.5 34.8 69 -3.5 25.8
02:20 1013 29.91 842 24.86 1.7 35 72 -2.8 26.9
02:25 1013 29.91 842 24.86 1.9 35.4 70 -3.1 26.5
02:30 1013 29.91 842 24.86 1.8 35.2 70 -3.1 26.4
02:35 1012 29.88 842 24.86 1.4 34.5 72 -3.1 26.4
02:40 1013 29.91 842 24.86 1.5 34.7 71 -3.3 26.1
02:45 1013 29.91 842 24.86 1.6 34.8 72 -2.9 26.8
02:50 1013 29.91 842 24.86 1.6 34.9 70 -3.2 26.3
02:55 1013 29.91 842 24.86 1.7 35.1 70 -3.1 26.4
03:00 1013 29.91 842 24.86 1.5 34.6 70 -3.5 25.7
03:05 1013 29.91 842 24.86 1.7 35 72 -2.8 26.9
03:10 1013 29.91 842 24.86 1.5 34.7 74 -2.7 27.2
03:15 1013 29.91 842 24.86 1.5 34.6 71 -3.2 26.2
03:20 1013 29.91 842 24.86 1.5 34.8 71 -3.2 26.2
03:25 1013 29.91 842 24.86 1.6 34.8 70 -3.4 25.8
03:30 1013 29.91 842 24.86 1.6 34.8 71 -3.1 26.5
03:35 1013 29.91 842 24.86 1.4 34.5 71 -3.3 26
03:40 1013 29.91 842 24.86 1.4 34.5 74 -2.8 26.9
03:45 1013 29.91 842 24.86 1.1 33.9 74 -3 26.5
03:50 1013 29.91 842 24.86 1.2 34.2 70 -3.6 25.5
03:55 1013 29.91 842 24.86 1.6 34.8 69 -3.5 25.7
04:00 1013 29.91 842 24.86 1.8 35.2 67 -3.7 25.4
04:05 1013 29.91 842 24.86 2.1 35.7 69 -3.1 26.5
04:10 1013 29.91 842 24.86 1.9 35.4 67 -3.5 25.6
04:15 1012 29.88 842 24.86 1.9 35.4 69 -3.3 26.1
04:20 1012 29.88 842 24.86 1.6 34.9 72 -2.8 26.9
04:25 1012 29.88 842 24.86 1.2 34.2 76 -2.5 27.5
04:30 1012 29.88 842 24.86 0.9 33.6 79 -2.3 27.9
04:35 1012 29.88 841 24.83 1 33.9 76 -2.7 27.2
04:40 1012 29.88 841 24.83 1.3 34.3 73 -3 26.6
04:45 1012 29.88 841 24.83 1.6 34.9 71 -3.2 26.3
04:50 1012 29.88 841 24.83 1.8 35.2 70 -3.2 26.3
04:55 1012 29.88 841 24.83 1.7 35.1 70 -3.2 26.2
05:00 1012 29.88 841 24.83 1.8 35.2 70 -3.2 26.3
05:05 1012 29.88 841 24.83 1.8 35.3 71 -2.8 26.9
05:10 1012 29.88 841 24.83 1.7 35 74 -2.4 27.6
05:15 1012 29.88 841 24.83 1.5 34.6 73 -2.9 26.9
05:20 1012 29.88 841 24.83 1.5 34.8 71 -3.1 26.4
05:25 1012 29.88 841 24.83 1.7 35.1 70 -3.1 26.4
05:30 1012 29.88 841 24.83 1.5 34.7 72 -2.9 26.7
05:35 1012 29.88 841 24.83 1.5 34.7 73 -2.8 27
05:40 1012 29.88 841 24.83 1.5 34.6 74 -2.6 27.3
05:45 1012 29.88 841 24.83 1.6 34.9 75 -2.5 27.6
05:50 1012 29.88 841 24.83 1.4 34.6 75 -2.5 27.5
05:55 1012 29.88 841 24.83 1.8 35.2 74 -2.4 27.7
06:00 1012 29.88 841 24.83 1.9 35.5 73 -2.5 27.6
06:05 1012 29.88 841 24.83 2.1 35.8 71 -2.6 27.4
06:10 1012 29.88 841 24.83 2.3 36.1 70 -2.5 27.4
06:15 1012 29.88 841 24.83 2.3 36.2 68 -3 26.7
06:20 1012 29.88 841 24.83 2.5 36.5 68 -2.8 27
06:25 1012 29.88 841 24.83 2.4 36.3 69 -2.7 27.1
06:30 1012 29.88 841 24.83 2.2 36 69 -3 26.7
06:35 1012 29.88 841 24.83 2.2 36 68 -3.1 26.5
06:40 1012 29.88 841 24.83 2.3 36.2 68 -2.9 26.7
06:45 1012 29.88 841 24.83 2.3 36.1 67 -3.2 26.3
06:50 1012 29.88 841 24.83 2.4 36.3 69 -2.8 26.9
06:55 1012 29.88 841 24.83 2.5 36.4 68 -2.8 26.9
07:00 1012 29.88 841 24.83 2.6 36.6 67 -3 26.6
07:05 1012 29.88 841 24.83 2.7 36.9 67 -2.8 27
07:10 1012 29.88 841 24.83 2.9 37.2 65 -3.1 26.4
07:15 1012 29.88 841 24.83 3.2 37.7 65 -2.8 27
07:20 1012 29.88 841 24.83 3 37.4 67 -2.5 27.5
07:25 1012 29.88 841 24.83 2.8 37.1 68 -2.4 27.6
07:30 1012 29.88 841 24.83 2.5 36.5 71 -2.2 28.1
07:35 1012 29.88 841 24.83 2 35.6 73 -2.3 27.9
07:40 1012 29.88 841 24.83 1.8 35.2 74 -2.4 27.7
07:45 1012 29.88 841 24.83 1.5 34.7 76 -2.3 27.8
07:50 1012 29.88 841 24.83 1.4 34.6 74 -2.8 27
07:55 1012 29.88 841 24.83 1.7 35 73 -2.7 27.2
08:00 1012 29.88 841 24.83 2.3 36.1 70 -2.7 27.2
08:05 1012 29.88 841 24.83 2.6 36.6 69 -2.5 27.6
08:10 1012 29.88 841 24.83 2.4 36.3 71 -2.3 27.8
08:15 1012 29.88 841 24.83 2.3 36.1 72 -2.3 27.8
08:20 1012 29.88 841 24.83 2.1 35.8 73 -2.3 27.9
08:25 1012 29.88 841 24.83 2 35.5 73 -2.3 27.9
08:30 1012 29.88 841 24.83 1.9 35.4 74 -2.3 27.9
08:35 1012 29.88 841 24.83 1.8 35.3 74 -2.2 28
08:40 1012 29.88 841 24.83 1.9 35.4 75 -2.1 28.2
08:45 1012 29.88 841 24.83 1.8 35.3 75 -2.1 28.2
08:50 1012 29.88 841 24.83 1.8 35.2 75 -2.2 28.1
08:55 1012 29.88 841 24.83 1.8 35.3 75 -2.1 28.1
09:00 1012 29.88 841 24.83 1.9 35.5 75 -2.1 28.2
09:05 1012 29.88 841 24.83 2.2 36 73 -2.2 28.1
09:10 1012 29.88 841 24.83 2.5 36.4 72 -2 28.3
09:15 1012 29.88 841 24.83 2.5 36.4 73 -1.8 28.7
09:20 1012 29.88 841 24.83 2.3 36.2 74 -1.9 28.6
09:25 1012 29.88 841 24.83 2.5 36.6 71 -2.1 28.2
09:30 1012 29.88 841 24.83 2.8 37 72 -1.8 28.7
09:35 1012 29.88 841 24.83 3 37.3 72 -1.7 29
09:40 1012 29.88 841 24.83 3 37.4 70 -1.9 28.6
09:45 1012 29.88 841 24.83 3.5 38.2 70 -1.4 29.4
09:50 1012 29.88 841 24.83 3.4 38 72 -1.3 29.7
09:55 1012 29.88 841 24.83 3.3 37.9 72 -1.3 29.7
10:00 1012 29.88 841 24.83 3.1 37.5 73 -1.3 29.6
10:05 1012 29.88 841 24.83 3.1 37.5 73 -1.3 29.6
10:10 1012 29.88 841 24.83 3 37.5 75 -1 30.1
10:15 1012 29.88 841 24.83 3.2 37.7 73 -1.2 29.9
10:20 1012 29.88 841 24.83 3.5 38.3 71 -1.2 29.8
10:25 1012 29.88 841 24.83 3.6 38.5 71 -1 30.1
10:30 1012 29.88 841 24.83 3.3 38 72 -1.3 29.6
10:35 1012 29.88 841 24.83 3.3 38 74 -1 30.3
10:40 1012 29.88 841 24.83 3.2 37.7 72 -1.3 29.6
10:45 1012 29.88 841 24.83 3.5 38.4 72 -1.1 30
10:50 1012 29.88 841 24.83 3.6 38.4 71 -1.1 29.9
10:55 1012 29.88 841 24.83 3.6 38.4 71 -1.2 29.9
11:00 1012 29.88 841 24.83 3.7 38.6 70 -1.3 29.7
11:05 1012 29.88 841 24.83 3.8 38.9 70 -1.1 29.9
11:10 1012 29.88 842 24.86 4 39.1 69 -1.2 29.8
11:15 1012 29.88 842 24.86 4.1 39.4 68 -1.3 29.7
11:20 1012 29.88 842 24.86 4.3 39.8 67 -1.3 29.7
11:25 1012 29.88 842 24.86 4.5 40.1 65 -1.4 29.4
11:30 1012 29.88 842 24.86 4.6 40.4 66 -1.1 30
11:35 1012 29.88 842 24.86 4.8 40.7 66 -1 30.1
11:40 1012 29.88 842 24.86 5 41 65 -1.1 30
11:45 1012 29.88 842 24.86 5.1 41.2 64 -1.1 30
11:50 1012 29.88 842 24.86 5.2 41.4 65 -0.9 30.3
11:55 1012 29.88 842 24.86 5 41 67 -0.6 30.9
12:00 1012 29.88 842 24.86 4.8 40.6 67 -0.9 30.4
12:05 1012 29.88 841 24.83 4.5 40.2 67 -1.1 30
12:10 1012 29.88 841 24.83 4.6 40.4 67 -1 30.3
12:15 1012 29.88 841 24.83 4.6 40.3 66 -1.2 29.8
12:20 1012 29.88 841 24.83 4.9 40.8 65 -1 30.1
12:25 1012 29.88 841 24.83 5.1 41.2 65 -0.9 30.4
12:30 1012 29.88 841 24.83 5.2 41.4 65 -0.9 30.4
12:35 1012 29.88 841 24.83 5.2 41.4 65 -0.7 30.7
12:40 1012 29.88 841 24.83 5.2 41.3 64 -1.1 30.1
12:45 1012 29.88 841 24.83 5 41 63 -1.4 29.5
12:50 1012 29.88 841 24.83 5 41 64 -1.2 29.8
12:55 1012 29.88 841 24.83 4.9 40.9 66 -0.8 30.6
13:00 1012 29.88 841 24.83 4.7 40.5 65 -1.2 29.8
13:05 1012 29.88 841 24.83 4.6 40.3 65 -1.3 29.6
13:10 1012 29.88 841 24.83 4.7 40.4 66 -1.2 29.9
13:15 1012 29.88 841 24.83 4.8 40.6 65 -1.3 29.7
13:20 1012 29.88 841 24.83 5 41.1 65 -0.9 30.3
13:25 1012 29.88 841 24.83 5.2 41.3 65 -0.9 30.3
13:30 1012 29.88 841 24.83 5.2 41.4 63 -1.2 29.9
13:35 1012 29.88 841 24.83 5.4 41.6 62 -1.2 29.8
13:40 1012 29.88 841 24.83 5.5 41.8 62 -1.2 29.9
13:45 1012 29.88 841 24.83 5.6 42 62 -1.2 29.9
13:50 1012 29.88 841 24.83 5.8 42.4 61 -1.2 29.8
13:55 1012 29.88 841 24.83 5.8 42.4 63 -0.7 30.7
14:00 1012 29.88 841 24.83 5.5 42 63 -1 30.2
14:05 1012 29.88 841 24.83 5.5 42 62 -1.2 29.9
14:10 1012 29.88 841 24.83 5.7 42.3 61 -1.2 29.9
14:15 1012 29.88 841 24.83 6 42.8 60 -1.3 29.7
14:20 1012 29.88 841 24.83 6.3 43.4 59 -1.1 30
14:25 1012 29.88 841 24.83 6.5 43.7 59 -0.9 30.4
14:30 1012 29.88 841 24.83 6.6 44 58 -0.9 30.4
14:35 1012 29.88 841 24.83 6.7 44 58 -0.9 30.4
14:40 1012 29.88 841 24.83 6.6 43.8 60 -0.6 31
14:45 1012 29.88 841 24.83 6.4 43.4 62 -0.5 31.2
14:50 1012 29.88 841 24.83 6.2 43.1 61 -0.7 30.7
14:55 1012 29.88 841 24.83 6 42.8 61 -0.9 30.4
15:00 1012 29.88 841 24.83 5.7 42.3 63 -0.7 30.7
15:05 1012 29.88 841 24.83 5.7 42.3 62 -0.9 30.3
15:10 1012 29.88 841 24.83 5.5 42 63 -0.9 30.3
15:15 1012 29.88 841 24.83 5.7 42.3 63 -0.8 30.6
15:20 1012 29.88 841 24.83 5.8 42.4 62 -1 30.2
15:25 1012 29.88 841 24.83 6 42.7 62 -0.8 30.5
15:30 1012 29.88 841 24.83 6 42.8 62 -0.8 30.6
15:35 1012 29.88 842 24.86 5.8 42.4 61 -1.1 30.1
15:40 1012 29.88 841 24.83 6 42.7 61 -1 30.1
15:45 1012 29.88 842 24.86 5.9 42.6 62 -0.9 30.4
15:50 1012 29.88 842 24.86 5.6 42.1 63 -0.9 30.3
15:55 1013 29.91 842 24.86 5.5 42 62 -1.1 30
16:00 1013 29.91 842 24.86 5.8 42.4 62 -1 30.2
16:05 1013 29.91 842 24.86 5.7 42.3 62 -1 30.2
16:10 1013 29.91 842 24.86 5.7 42.2 63 -0.9 30.4
16:15 1013 29.91 842 24.86 5.9 42.5 61 -1.1 30.1
16:20 1013 29.91 842 24.86 5.9 42.6 61 -1.1 30
16:25 1013 29.91 842 24.86 6 42.9 60 -1.2 29.8
16:30 1013 29.91 842 24.86 6.2 43.2 60 -0.9 30.4
16:35 1013 29.91 842 24.86 6.1 43 61 -0.8 30.5
16:40 1013 29.91 842 24.86 6.2 43.2 60 -1 30.2
16:45 1013 29.91 842 24.86 6.3 43.4 59 -1 30.2
16:50 1013 29.91 842 24.86 6.4 43.6 59 -0.9 30.4
16:55 1013 29.91 843 24.89 6.4 43.6 60 -0.7 30.7
17:00 1013 29.91 843 24.89 6.3 43.4 60 -0.8 30.6
17:05 1013 29.91 843 24.89 6.3 43.3 62 -0.5 31.1
17:10 1013 29.91 843 24.89 6.2 43.2 61 -0.6 30.9
17:15 1013 29.91 843 24.89 6.3 43.3 61 -0.6 30.9
17:20 1013 29.91 843 24.89 6.2 43.1 62 -0.5 31
17:25 1013 29.91 843 24.89 6.2 43.1 62 -0.5 31.2
17:30 1014 29.94 843 24.89 6 42.8 63 -0.5 31.2
17:35 1014 29.94 843 24.89 5.9 42.6 64 -0.5 31.2
17:40 1014 29.94 843 24.89 5.7 42.2 65 -0.4 31.2
17:45 1014 29.94 843 24.89 5.6 42.1 65 -0.5 31
17:50 1014 29.94 843 24.89 5.7 42.3 64 -0.6 31
17:55 1014 29.94 843 24.89 5.6 42.2 64 -0.6 31
18:00 1014 29.94 843 24.89 5.5 41.8 65 -0.6 31
18:05 1014 29.94 843 24.89 5.4 41.8 66 -0.5 31.1
18:10 1014 29.94 843 24.89 5.7 42.2 65 -0.5 31.1
18:15 1014 29.94 843 24.89 5.7 42.3 64 -0.5 31.2
18:20 1014 29.94 843 24.89 5.6 42.1 65 -0.4 31.2
18:25 1014 29.94 843 24.89 5.4 41.8 66 -0.4 31.3
18:30 1014 29.94 843 24.89 5.1 41.2 67 -0.5 31
18:35 1014 29.94 843 24.89 5.2 41.4 66 -0.6 30.9
18:40 1014 29.94 843 24.89 5.3 41.5 66 -0.6 31
18:45 1014 29.94 844 24.92 5.2 41.4 66 -0.5 31.1
18:50 1014 29.94 844 24.92 5 41 68 -0.5 31.1
18:55 1014 29.94 844 24.92 4.8 40.6 69 -0.5 31.1
19:00 1014 29.94 844 24.92 4.9 40.8 67 -0.8 30.6
19:05 1014 29.94 844 24.92 5.1 41.1 68 -0.4 31.2
19:10 1014 29.94 844 24.92 4.8 40.6 68 -0.6 31
19:15 1014 29.94 844 24.92 4.8 40.7 68 -0.6 31
19:20 1014 29.94 844 24.92 4.8 40.6 68 -0.5 31
19:25 1014 29.94 844 24.92 4.7 40.4 68 -0.8 30.6
19:30 1014 29.94 844 24.92 5.1 41.3 66 -0.7 30.7
19:35 1015 29.97 844 24.92 5.1 41.2 67 -0.5 31.1
19:40 1015 29.97 844 24.92 5.1 41.2 66 -0.6 30.9
19:45 1015 29.97 844 24.92 5.2 41.4 66 -0.5 31
19:50 1015 29.97 844 24.92 5.1 41.2 68 -0.4 31.3
19:55 1015 29.97 844 24.92 4.8 40.6 69 -0.4 31.2
20:00 1015 29.97 844 24.92 4.8 40.6 69 -0.4 31.3
20:05 1015 29.97 844 24.92 4.5 40.1 71 -0.4 31.3
20:10 1015 29.97 844 24.92 4.4 39.8 72 -0.3 31.5
20:15 1015 29.97 844 24.92 4.2 39.6 72 -0.4 31.3
20:20 1015 29.97 844 24.92 4.5 40.1 70 -0.6 31
20:25 1015 29.97 844 24.92 4.8 40.6 68 -0.6 31
20:30 1015 29.97 844 24.92 4.7 40.4 70 -0.3 31.4
20:35 1015 29.97 844 24.92 4.7 40.4 70 -0.2 31.6
20:40 1015 29.97 844 24.92 4.7 40.5 69 -0.4 31.2
20:45 1015 29.97 844 24.92 4.9 40.9 68 -0.5 31.1
20:50 1015 29.97 844 24.92 5.1 41.2 68 -0.3 31.5
20:55 1015 29.97 844 24.92 5 41 67 -0.7 30.8
21:00 1015 29.97 844 24.92 5.4 41.8 64 -0.7 30.7
21:05 1015 29.97 844 24.92 5.6 42.1 64 -0.7 30.8
21:10 1015 29.97 844 24.92 5.7 42.2 64 -0.6 30.9
21:15 1015 29.97 844 24.92 5.6 42.1 65 -0.5 31.1
21:20 1015 29.97 844 24.92 5.5 41.9 65 -0.5 31.1
21:25 1015 29.97 845 24.95 5.2 41.4 66 -0.6 31
21:30 1015 29.97 845 24.95 5 41.1 67 -0.6 30.9
21:35 1015 29.97 845 24.95 5.2 41.4 66 -0.6 30.9
21:40 1015 29.97 845 24.95 5.4 41.7 66 -0.4 31.3
21:45 1015 29.97 845 24.95 5.3 41.5 68 -0 31.9
21:50 1016 30 845 24.95 4.7 40.4 73 0.2 32.4
21:55 1015 29.97 845 24.95 4.3 39.7 73 -0 31.9
22:00 1016 30 845 24.95 4 39.2 74 -0.2 31.6
22:05 1016 30 845 24.95 3.9 39 76 0.1 32.1
22:10 1016 30 845 24.95 3.7 38.7 77 0.1 32.2
22:15 1016 30 845 24.95 3.4 38.1 78 -0 31.9
22:20 1016 30 845 24.95 3.3 38 78 -0.1 31.8
22:25 1016 30 845 24.95 3.4 38.2 77 -0.3 31.5
22:30 1016 30 845 24.95 3.7 38.7 75 -0.2 31.6
22:35 1016 30 845 24.95 4 39.2 74 -0.2 31.7
22:40 1016 30 845 24.95 4 39.1 74 -0.2 31.7
22:45 1016 30 845 24.95 4.2 39.6 72 -0.4 31.3
22:50 1016 30 845 24.95 4.4 39.9 72 -0.3 31.4
22:55 1016 30 845 24.95 4.4 39.9 72 -0.3 31.5
23:00 1016 30 845 24.95 4 39.3 75 -0.1 31.9
23:05 1016 30 845 24.95 3.8 38.9 74 -0.3 31.4
23:10 1016 30 845 24.95 3.8 38.9 74 -0.4 31.3
23:15 1016 30 845 24.95 3.9 39 74 -0.3 31.4
23:20 1016 30 845 24.95 3.8 38.9 75 -0.3 31.5
23:25 1016 30 845 24.95 3.7 38.7 75 -0.4 31.3
23:30 1016 30 845 24.95 3.8 38.9 75 -0.3 31.5
23:35 1016 30 845 24.95 3.9 39 75 -0.1 31.8
23:40 1016 30 846 24.98 3.9 39 76 0 32
23:45 1016 30 846 24.98 3.8 38.9 76 0.1 32.1
23:50 1017 30.03 846 24.98 3.7 38.7 78 0.2 32.3
23:55 1017 30.03 846 24.98 3.6 38.5 78 0.2 32.4
24:00 1017 30.03 846 24.98 3.8 38.8 76 -0.1 31.8